Terminal Aerodrome Forecast
Issued by NWS

Home | Current Version | Previous Version | Text Only | Print | Product List | Glossary On
Versions: 1 2 3 4 5 6 7 8 9 10 11 12 13 14
000
FTUS46 KPDT 300100 AAB
TAFRDM
TAF AMD
KRDM 300116Z 3001/3024 33008KT P6SM SCT060 BKN120
     FM300800 VRB04KT P6SM FEW250
     FM302100 33011KT P6SM VCTS SCT120CB BKN200=

USA.gov is the U.S. government's official web portal to all federal, state and local government web resources and services.